sensor_id;sensor_type;location;lat;lon;timestamp;P1;durP1;ratioP1;P2;durP2;ratioP2
6825;SDS011;3451;52.476;13.316;2022-11-30T00:01:15;64.70;;;35.57;;
6825;SDS011;3451;52.476;13.316;2022-11-30T00:03:43;69.67;;;37.10;;
6825;SDS011;3451;52.476;13.316;2022-11-30T00:06:10;69.27;;;36.77;;
6825;SDS011;3451;52.476;13.316;2022-11-30T00:08:36;66.53;;;36.20;;
6825;SDS011;3451;52.476;13.316;2022-11-30T00:11:07;73.90;;;37.77;;
6825;SDS011;3451;52.476;13.316;2022-11-30T00:13:33;67.80;;;36.63;;
6825;SDS011;3451;52.476;13.316;2022-11-30T00:16:02;68.20;;;36.67;;
6825;SDS011;3451;52.476;13.316;2022-11-30T00:18:28;74.63;;;37.57;;
6825;SDS011;3451;52.476;13.316;2022-11-30T00:20:58;68.07;;;36.23;;
6825;SDS011;3451;52.476;13.316;2022-11-30T00:23:25;68.27;;;35.30;;
6825;SDS011;3451;52.476;13.316;2022-11-30T00:25:51;69.67;;;36.30;;
6825;SDS011;3451;52.476;13.316;2022-11-30T00:28:17;67.60;;;36.47;;
6825;SDS011;3451;52.476;13.316;2022-11-30T00:30:43;70.27;;;36.17;;
6825;SDS011;3451;52.476;13.316;2022-11-30T00:33:10;69.80;;;36.93;;
6825;SDS011;3451;52.476;13.316;2022-11-30T00:35:36;71.77;;;36.70;;
6825;SDS011;3451;52.476;13.316;2022-11-30T00:38:02;72.77;;;36.90;;
6825;SDS011;3451;52.476;13.316;2022-11-30T00:40:29;72.67;;;37.53;;
6825;SDS011;3451;52.476;13.316;2022-11-30T00:42:55;71.03;;;36.57;;
6825;SDS011;3451;52.476;13.316;2022-11-30T00:45:21;66.30;;;36.20;;
6825;SDS011;3451;52.476;13.316;2022-11-30T00:47:47;71.77;;;37.50;;
6825;SDS011;3451;52.476;13.316;2022-11-30T00:50:14;72.50;;;35.97;;
6825;SDS011;3451;52.476;13.316;2022-11-30T00:52:40;70.80;;;39.03;;
6825;SDS011;3451;52.476;13.316;2022-11-30T00:55:06;66.30;;;35.97;;
6825;SDS011;3451;52.476;13.316;2022-11-30T00:57:32;63.63;;;35.07;;
6825;SDS011;3451;52.476;13.316;2022-11-30T00:59:59;77.70;;;37.57;;
6825;SDS011;3451;52.476;13.316;2022-11-30T01:02:25;70.07;;;37.30;;
6825;SDS011;3451;52.476;13.316;2022-11-30T01:04:52;75.40;;;38.27;;
6825;SDS011;3451;52.476;13.316;2022-11-30T01:07:19;76.53;;;38.77;;
6825;SDS011;3451;52.476;13.316;2022-11-30T01:09:45;74.07;;;38.47;;
6825;SDS011;3451;52.476;13.316;2022-11-30T01:12:11;73.80;;;37.97;;
6825;SDS011;3451;52.476;13.316;2022-11-30T01:14:37;81.80;;;39.70;;
6825;SDS011;3451;52.476;13.316;2022-11-30T01:17:04;69.03;;;36.20;;
6825;SDS011;3451;52.476;13.316;2022-11-30T01:19:30;75.47;;;37.80;;
6825;SDS011;3451;52.476;13.316;2022-11-30T01:21:56;74.87;;;38.10;;
6825;SDS011;3451;52.476;13.316;2022-11-30T01:24:22;75.70;;;38.43;;
6825;SDS011;3451;52.476;13.316;2022-11-30T01:26:48;70.33;;;37.13;;
6825;SDS011;3451;52.476;13.316;2022-11-30T01:29:15;70.73;;;38.13;;
6825;SDS011;3451;52.476;13.316;2022-11-30T01:31:41;72.07;;;37.90;;
6825;SDS011;3451;52.476;13.316;2022-11-30T01:34:10;79.20;;;38.60;;
6825;SDS011;3451;52.476;13.316;2022-11-30T01:36:37;72.87;;;39.27;;
6825;SDS011;3451;52.476;13.316;2022-11-30T01:39:05;75.00;;;37.60;;
6825;SDS011;3451;52.476;13.316;2022-11-30T01:41:32;73.57;;;38.47;;
6825;SDS011;3451;52.476;13.316;2022-11-30T01:46:35;80.50;;;37.73;;
6825;SDS011;3451;52.476;13.316;2022-11-30T01:49:05;73.20;;;38.63;;
6825;SDS011;3451;52.476;13.316;2022-11-30T01:54:10;74.20;;;38.77;;
6825;SDS011;3451;52.476;13.316;2022-11-30T01:56:38;75.73;;;38.80;;
6825;SDS011;3451;52.476;13.316;2022-11-30T01:59:05;76.60;;;39.57;;
6825;SDS011;3451;52.476;13.316;2022-11-30T02:01:32;74.73;;;38.93;;
6825;SDS011;3451;52.476;13.316;2022-11-30T02:04:00;73.53;;;39.27;;
6825;SDS011;3451;52.476;13.316;2022-11-30T02:06:28;76.17;;;38.43;;
6825;SDS011;3451;52.476;13.316;2022-11-30T02:08:54;76.90;;;39.50;;
6825;SDS011;3451;52.476;13.316;2022-11-30T02:11:21;77.30;;;39.97;;
6825;SDS011;3451;52.476;13.316;2022-11-30T02:13:55;77.17;;;40.13;;
6825;SDS011;3451;52.476;13.316;2022-11-30T02:16:43;77.60;;;39.60;;
6825;SDS011;3451;52.476;13.316;2022-11-30T02:21:49;78.50;;;40.03;;
6825;SDS011;3451;52.476;13.316;2022-11-30T02:24:26;78.10;;;39.57;;
6825;SDS011;3451;52.476;13.316;2022-11-30T02:29:32;74.87;;;37.10;;
6825;SDS011;3451;52.476;13.316;2022-11-30T02:32:07;74.60;;;38.20;;
6825;SDS011;3451;52.476;13.316;2022-11-30T02:34:35;73.50;;;37.97;;
6825;SDS011;3451;52.476;13.316;2022-11-30T02:37:02;75.70;;;39.20;;
6825;SDS011;3451;52.476;13.316;2022-11-30T02:39:30;80.73;;;39.20;;
6825;SDS011;3451;52.476;13.316;2022-11-30T02:41:56;74.77;;;38.10;;
6825;SDS011;3451;52.476;13.316;2022-11-30T02:44:22;75.90;;;38.77;;
6825;SDS011;3451;52.476;13.316;2022-11-30T02:46:55;75.87;;;39.90;;
6825;SDS011;3451;52.476;13.316;2022-11-30T02:49:26;75.20;;;38.67;;
6825;SDS011;3451;52.476;13.316;2022-11-30T02:51:54;74.37;;;37.90;;
6825;SDS011;3451;52.476;13.316;2022-11-30T02:54:21;75.43;;;37.73;;
6825;SDS011;3451;52.476;13.316;2022-11-30T02:56:48;78.83;;;39.33;;
6825;SDS011;3451;52.476;13.316;2022-11-30T02:59:14;74.50;;;38.30;;
6825;SDS011;3451;52.476;13.316;2022-11-30T03:01:40;74.37;;;39.27;;
6825;SDS011;3451;52.476;13.316;2022-11-30T03:04:07;77.47;;;38.20;;
6825;SDS011;3451;52.476;13.316;2022-11-30T03:06:33;73.73;;;39.07;;
6825;SDS011;3451;52.476;13.316;2022-11-30T03:09:00;75.30;;;38.90;;
6825;SDS011;3451;52.476;13.316;2022-11-30T03:11:26;72.20;;;37.93;;
6825;SDS011;3451;52.476;13.316;2022-11-30T03:13:52;74.10;;;37.77;;
6825;SDS011;3451;52.476;13.316;2022-11-30T03:16:19;72.80;;;39.67;;
6825;SDS011;3451;52.476;13.316;2022-11-30T03:18:45;74.47;;;39.30;;
6825;SDS011;3451;52.476;13.316;2022-11-30T03:21:11;75.03;;;38.90;;
6825;SDS011;3451;52.476;13.316;2022-11-30T03:23:38;77.83;;;39.30;;
6825;SDS011;3451;52.476;13.316;2022-11-30T03:26:05;73.77;;;38.13;;
6825;SDS011;3451;52.476;13.316;2022-11-30T03:28:33;74.57;;;38.83;;
6825;SDS011;3451;52.476;13.316;2022-11-30T03:30:59;80.33;;;39.43;;
6825;SDS011;3451;52.476;13.316;2022-11-30T03:33:26;74.40;;;38.97;;
6825;SDS011;3451;52.476;13.316;2022-11-30T03:36:02;76.47;;;40.20;;
6825;SDS011;3451;52.476;13.316;2022-11-30T03:38:29;73.03;;;38.23;;
6825;SDS011;3451;52.476;13.316;2022-11-30T03:40:59;68.83;;;37.90;;
6825;SDS011;3451;52.476;13.316;2022-11-30T03:43:25;73.47;;;38.37;;
6825;SDS011;3451;52.476;13.316;2022-11-30T03:45:52;75.57;;;37.83;;
6825;SDS011;3451;52.476;13.316;2022-11-30T03:48:18;73.77;;;38.40;;
6825;SDS011;3451;52.476;13.316;2022-11-30T03:50:44;76.77;;;39.50;;
6825;SDS011;3451;52.476;13.316;2022-11-30T03:53:15;80.60;;;41.17;;
6825;SDS011;3451;52.476;13.316;2022-11-30T03:55:42;73.50;;;38.13;;
6825;SDS011;3451;52.476;13.316;2022-11-30T03:58:09;80.10;;;39.17;;
6825;SDS011;3451;52.476;13.316;2022-11-30T04:00:36;76.10;;;38.77;;
6825;SDS011;3451;52.476;13.316;2022-11-30T04:03:03;72.80;;;38.40;;
6825;SDS011;3451;52.476;13.316;2022-11-30T04:05:29;78.03;;;39.10;;
6825;SDS011;3451;52.476;13.316;2022-11-30T04:07:55;76.73;;;38.87;;
6825;SDS011;3451;52.476;13.316;2022-11-30T04:10:21;74.37;;;38.50;;
6825;SDS011;3451;52.476;13.316;2022-11-30T04:12:49;83.97;;;38.97;;
6825;SDS011;3451;52.476;13.316;2022-11-30T04:15:15;81.07;;;38.97;;
6825;SDS011;3451;52.476;13.316;2022-11-30T04:17:41;76.17;;;38.93;;
6825;SDS011;3451;52.476;13.316;2022-11-30T04:20:08;70.97;;;37.30;;
6825;SDS011;3451;52.476;13.316;2022-11-30T04:22:34;69.67;;;36.77;;
6825;SDS011;3451;52.476;13.316;2022-11-30T04:25:00;69.13;;;36.93;;
6825;SDS011;3451;52.476;13.316;2022-11-30T04:27:27;75.37;;;38.00;;
6825;SDS011;3451;52.476;13.316;2022-11-30T04:29:53;68.93;;;37.73;;
6825;SDS011;3451;52.476;13.316;2022-11-30T04:32:20;74.77;;;39.53;;
6825;SDS011;3451;52.476;13.316;2022-11-30T04:34:46;73.13;;;37.63;;
6825;SDS011;3451;52.476;13.316;2022-11-30T04:37:12;76.20;;;37.60;;
6825;SDS011;3451;52.476;13.316;2022-11-30T04:39:39;74.67;;;37.33;;
6825;SDS011;3451;52.476;13.316;2022-11-30T04:42:05;75.13;;;39.67;;
6825;SDS011;3451;52.476;13.316;2022-11-30T04:44:31;76.07;;;38.67;;
6825;SDS011;3451;52.476;13.316;2022-11-30T04:46:57;81.93;;;39.27;;
6825;SDS011;3451;52.476;13.316;2022-11-30T04:49:24;72.93;;;37.73;;
6825;SDS011;3451;52.476;13.316;2022-11-30T04:51:50;69.30;;;37.63;;
6825;SDS011;3451;52.476;13.316;2022-11-30T04:54:16;78.47;;;40.10;;
6825;SDS011;3451;52.476;13.316;2022-11-30T04:56:42;79.00;;;39.17;;
6825;SDS011;3451;52.476;13.316;2022-11-30T04:59:08;75.17;;;39.23;;
6825;SDS011;3451;52.476;13.316;2022-11-30T05:01:35;73.20;;;37.50;;
6825;SDS011;3451;52.476;13.316;2022-11-30T05:04:01;78.43;;;39.67;;
6825;SDS011;3451;52.476;13.316;2022-11-30T05:06:27;72.97;;;38.57;;
6825;SDS011;3451;52.476;13.316;2022-11-30T05:08:53;78.80;;;39.63;;
6825;SDS011;3451;52.476;13.316;2022-11-30T05:11:20;77.60;;;39.57;;
6825;SDS011;3451;52.476;13.316;2022-11-30T05:13:46;75.40;;;40.47;;
6825;SDS011;3451;52.476;13.316;2022-11-30T05:16:12;77.73;;;40.30;;
6825;SDS011;3451;52.476;13.316;2022-11-30T05:18:39;74.63;;;38.87;;
6825;SDS011;3451;52.476;13.316;2022-11-30T05:21:05;78.03;;;37.23;;
6825;SDS011;3451;52.476;13.316;2022-11-30T05:23:31;81.67;;;39.33;;
6825;SDS011;3451;52.476;13.316;2022-11-30T05:26:00;78.10;;;39.10;;
6825;SDS011;3451;52.476;13.316;2022-11-30T05:28:26;76.33;;;38.37;;
6825;SDS011;3451;52.476;13.316;2022-11-30T05:30:52;78.43;;;38.23;;
6825;SDS011;3451;52.476;13.316;2022-11-30T05:33:28;78.73;;;39.07;;
6825;SDS011;3451;52.476;13.316;2022-11-30T05:35:54;73.10;;;38.87;;
6825;SDS011;3451;52.476;13.316;2022-11-30T05:38:20;72.43;;;39.70;;
6825;SDS011;3451;52.476;13.316;2022-11-30T05:40:46;76.63;;;38.87;;
6825;SDS011;3451;52.476;13.316;2022-11-30T05:43:13;82.83;;;40.33;;
6825;SDS011;3451;52.476;13.316;2022-11-30T05:45:39;74.97;;;38.03;;
6825;SDS011;3451;52.476;13.316;2022-11-30T05:48:05;80.63;;;37.90;;
6825;SDS011;3451;52.476;13.316;2022-11-30T05:50:32;78.73;;;39.77;;
6825;SDS011;3451;52.476;13.316;2022-11-30T05:52:58;78.70;;;40.23;;
6825;SDS011;3451;52.476;13.316;2022-11-30T05:55:28;79.50;;;38.83;;
6825;SDS011;3451;52.476;13.316;2022-11-30T05:57:56;80.53;;;39.20;;
6825;SDS011;3451;52.476;13.316;2022-11-30T06:00:22;77.77;;;39.80;;
6825;SDS011;3451;52.476;13.316;2022-11-30T06:02:53;75.80;;;38.33;;
6825;SDS011;3451;52.476;13.316;2022-11-30T06:05:20;77.13;;;38.50;;
6825;SDS011;3451;52.476;13.316;2022-11-30T06:07:46;77.87;;;38.47;;
6825;SDS011;3451;52.476;13.316;2022-11-30T06:10:12;76.33;;;38.90;;
6825;SDS011;3451;52.476;13.316;2022-11-30T06:12:39;76.90;;;40.23;;
6825;SDS011;3451;52.476;13.316;2022-11-30T06:15:05;74.23;;;37.77;;
6825;SDS011;3451;52.476;13.316;2022-11-30T06:17:31;76.37;;;39.10;;
6825;SDS011;3451;52.476;13.316;2022-11-30T06:19:58;79.40;;;39.17;;
6825;SDS011;3451;52.476;13.316;2022-11-30T06:22:24;73.47;;;37.40;;
6825;SDS011;3451;52.476;13.316;2022-11-30T06:24:50;76.80;;;37.17;;
6825;SDS011;3451;52.476;13.316;2022-11-30T06:27:16;79.00;;;38.77;;
6825;SDS011;3451;52.476;13.316;2022-11-30T06:29:43;77.43;;;38.57;;
6825;SDS011;3451;52.476;13.316;2022-11-30T06:32:09;74.43;;;38.30;;
6825;SDS011;3451;52.476;13.316;2022-11-30T06:34:35;70.03;;;37.43;;
6825;SDS011;3451;52.476;13.316;2022-11-30T06:37:01;73.10;;;37.30;;
6825;SDS011;3451;52.476;13.316;2022-11-30T06:39:28;75.30;;;38.67;;
6825;SDS011;3451;52.476;13.316;2022-11-30T06:42:14;69.57;;;37.20;;
6825;SDS011;3451;52.476;13.316;2022-11-30T06:44:40;77.03;;;38.43;;
6825;SDS011;3451;52.476;13.316;2022-11-30T06:47:06;71.63;;;37.80;;
6825;SDS011;3451;52.476;13.316;2022-11-30T06:49:33;71.27;;;37.30;;
6825;SDS011;3451;52.476;13.316;2022-11-30T06:51:59;78.10;;;37.97;;
6825;SDS011;3451;52.476;13.316;2022-11-30T06:54:26;70.60;;;37.43;;
6825;SDS011;3451;52.476;13.316;2022-11-30T06:56:53;77.03;;;38.43;;
6825;SDS011;3451;52.476;13.316;2022-11-30T06:59:19;72.30;;;38.23;;
6825;SDS011;3451;52.476;13.316;2022-11-30T07:01:45;69.33;;;37.07;;
6825;SDS011;3451;52.476;13.316;2022-11-30T07:04:11;69.00;;;37.37;;
6825;SDS011;3451;52.476;13.316;2022-11-30T07:06:38;72.57;;;37.53;;
6825;SDS011;3451;52.476;13.316;2022-11-30T07:09:04;78.17;;;38.23;;
6825;SDS011;3451;52.476;13.316;2022-11-30T07:11:30;70.67;;;37.30;;
6825;SDS011;3451;52.476;13.316;2022-11-30T07:13:58;79.00;;;37.30;;
6825;SDS011;3451;52.476;13.316;2022-11-30T07:16:25;75.67;;;37.73;;
6825;SDS011;3451;52.476;13.316;2022-11-30T07:18:51;87.77;;;39.27;;
6825;SDS011;3451;52.476;13.316;2022-11-30T07:21:18;74.43;;;37.83;;
6825;SDS011;3451;52.476;13.316;2022-11-30T07:23:44;74.30;;;37.87;;
6825;SDS011;3451;52.476;13.316;2022-11-30T07:26:29;72.63;;;36.97;;
6825;SDS011;3451;52.476;13.316;2022-11-30T07:28:55;77.80;;;38.50;;
6825;SDS011;3451;52.476;13.316;2022-11-30T07:33:50;69.57;;;36.13;;
6825;SDS011;3451;52.476;13.316;2022-11-30T07:36:17;73.00;;;36.90;;
6825;SDS011;3451;52.476;13.316;2022-11-30T07:38:44;80.03;;;38.10;;
6825;SDS011;3451;52.476;13.316;2022-11-30T07:41:11;73.90;;;36.90;;
6825;SDS011;3451;52.476;13.316;2022-11-30T07:43:37;80.53;;;37.57;;
6825;SDS011;3451;52.476;13.316;2022-11-30T07:46:04;68.27;;;36.13;;
6825;SDS011;3451;52.476;13.316;2022-11-30T07:48:30;70.43;;;35.17;;
6825;SDS011;3451;52.476;13.316;2022-11-30T07:51:02;68.47;;;35.73;;
6825;SDS011;3451;52.476;13.316;2022-11-30T07:53:28;69.83;;;35.60;;
6825;SDS011;3451;52.476;13.316;2022-11-30T07:56:03;67.83;;;37.20;;
6825;SDS011;3451;52.476;13.316;2022-11-30T07:58:30;66.87;;;35.17;;
6825;SDS011;3451;52.476;13.316;2022-11-30T08:01:39;67.30;;;35.83;;
6825;SDS011;3451;52.476;13.316;2022-11-30T08:03:54;69.93;;;35.37;;
6825;SDS011;3451;52.476;13.316;2022-11-30T08:06:22;71.03;;;35.40;;
6825;SDS011;3451;52.476;13.316;2022-11-30T08:08:49;76.33;;;36.53;;
6825;SDS011;3451;52.476;13.316;2022-11-30T08:11:20;71.27;;;36.43;;
6825;SDS011;3451;52.476;13.316;2022-11-30T08:13:47;70.47;;;37.03;;
6825;SDS011;3451;52.476;13.316;2022-11-30T08:16:15;74.37;;;36.13;;
6825;SDS011;3451;52.476;13.316;2022-11-30T08:18:41;65.80;;;35.27;;
6825;SDS011;3451;52.476;13.316;2022-11-30T08:21:09;72.03;;;35.20;;
6825;SDS011;3451;52.476;13.316;2022-11-30T08:23:36;65.97;;;35.10;;
6825;SDS011;3451;52.476;13.316;2022-11-30T08:26:04;71.30;;;36.47;;
6825;SDS011;3451;52.476;13.316;2022-11-30T08:28:31;72.63;;;35.40;;
6825;SDS011;3451;52.476;13.316;2022-11-30T08:30:58;67.13;;;34.97;;
6825;SDS011;3451;52.476;13.316;2022-11-30T08:33:25;65.60;;;35.60;;
6825;SDS011;3451;52.476;13.316;2022-11-30T08:36:05;65.93;;;34.87;;
6825;SDS011;3451;52.476;13.316;2022-11-30T08:38:32;61.63;;;34.50;;
6825;SDS011;3451;52.476;13.316;2022-11-30T08:40:58;67.77;;;34.70;;
6825;SDS011;3451;52.476;13.316;2022-11-30T08:43:26;66.67;;;35.30;;
6825;SDS011;3451;52.476;13.316;2022-11-30T08:45:52;65.93;;;34.03;;
6825;SDS011;3451;52.476;13.316;2022-11-30T08:48:22;65.03;;;35.33;;
6825;SDS011;3451;52.476;13.316;2022-11-30T08:50:48;66.80;;;34.33;;
6825;SDS011;3451;52.476;13.316;2022-11-30T08:53:15;65.60;;;34.37;;
6825;SDS011;3451;52.476;13.316;2022-11-30T08:55:41;71.13;;;34.87;;
6825;SDS011;3451;52.476;13.316;2022-11-30T08:58:07;68.20;;;35.27;;
6825;SDS011;3451;52.476;13.316;2022-11-30T09:00:33;63.53;;;34.50;;
6825;SDS011;3451;52.476;13.316;2022-11-30T09:03:00;65.53;;;34.97;;
6825;SDS011;3451;52.476;13.316;2022-11-30T09:05:26;70.53;;;35.20;;
6825;SDS011;3451;52.476;13.316;2022-11-30T09:07:52;65.40;;;34.63;;
6825;SDS011;3451;52.476;13.316;2022-11-30T09:10:19;63.20;;;34.17;;
6825;SDS011;3451;52.476;13.316;2022-11-30T09:12:45;65.90;;;35.53;;
6825;SDS011;3451;52.476;13.316;2022-11-30T09:15:11;61.60;;;33.30;;
6825;SDS011;3451;52.476;13.316;2022-11-30T09:17:37;61.17;;;34.00;;
6825;SDS011;3451;52.476;13.316;2022-11-30T09:20:04;67.97;;;36.13;;
6825;SDS011;3451;52.476;13.316;2022-11-30T09:22:30;62.53;;;34.00;;
6825;SDS011;3451;52.476;13.316;2022-11-30T09:24:57;65.50;;;34.83;;
6825;SDS011;3451;52.476;13.316;2022-11-30T09:27:23;67.73;;;33.50;;
6825;SDS011;3451;52.476;13.316;2022-11-30T09:29:49;58.80;;;32.83;;
6825;SDS011;3451;52.476;13.316;2022-11-30T09:32:16;70.53;;;34.07;;
6825;SDS011;3451;52.476;13.316;2022-11-30T09:34:42;69.73;;;35.00;;
6825;SDS011;3451;52.476;13.316;2022-11-30T09:37:09;67.53;;;34.83;;
6825;SDS011;3451;52.476;13.316;2022-11-30T09:39:36;64.07;;;34.17;;
6825;SDS011;3451;52.476;13.316;2022-11-30T09:42:25;66.00;;;34.43;;
6825;SDS011;3451;52.476;13.316;2022-11-30T09:44:57;59.13;;;33.63;;
6825;SDS011;3451;52.476;13.316;2022-11-30T09:47:40;65.63;;;34.40;;
6825;SDS011;3451;52.476;13.316;2022-11-30T09:50:12;62.50;;;35.00;;
6825;SDS011;3451;52.476;13.316;2022-11-30T09:52:39;59.80;;;33.40;;
6825;SDS011;3451;52.476;13.316;2022-11-30T09:55:08;65.70;;;34.37;;
6825;SDS011;3451;52.476;13.316;2022-11-30T09:57:43;60.17;;;33.97;;
6825;SDS011;3451;52.476;13.316;2022-11-30T10:00:17;61.30;;;33.50;;
6825;SDS011;3451;52.476;13.316;2022-11-30T10:02:44;65.13;;;32.97;;
6825;SDS011;3451;52.476;13.316;2022-11-30T10:05:14;62.43;;;33.40;;
6825;SDS011;3451;52.476;13.316;2022-11-30T10:10:31;60.33;;;31.57;;
6825;SDS011;3451;52.476;13.316;2022-11-30T10:13:04;63.93;;;33.33;;
6825;SDS011;3451;52.476;13.316;2022-11-30T10:18:22;59.13;;;33.13;;
6825;SDS011;3451;52.476;13.316;2022-11-30T10:21:10;58.27;;;33.67;;
6825;SDS011;3451;52.476;13.316;2022-11-30T10:23:42;60.93;;;32.60;;
6825;SDS011;3451;52.476;13.316;2022-11-30T10:26:11;60.63;;;33.07;;
6825;SDS011;3451;52.476;13.316;2022-11-30T10:28:49;64.03;;;33.87;;
6825;SDS011;3451;52.476;13.316;2022-11-30T10:31:23;58.73;;;32.60;;
6825;SDS011;3451;52.476;13.316;2022-11-30T10:33:53;63.20;;;34.00;;
6825;SDS011;3451;52.476;13.316;2022-11-30T10:36:32;67.73;;;34.23;;
6825;SDS011;3451;52.476;13.316;2022-11-30T10:39:01;62.07;;;32.93;;
6825;SDS011;3451;52.476;13.316;2022-11-30T10:41:30;62.63;;;33.20;;
6825;SDS011;3451;52.476;13.316;2022-11-30T10:44:01;69.80;;;34.10;;
6825;SDS011;3451;52.476;13.316;2022-11-30T10:46:33;63.63;;;33.90;;
6825;SDS011;3451;52.476;13.316;2022-11-30T10:49:03;62.10;;;32.70;;
6825;SDS011;3451;52.476;13.316;2022-11-30T10:51:30;68.27;;;33.70;;
6825;SDS011;3451;52.476;13.316;2022-11-30T10:53:59;59.93;;;31.97;;
6825;SDS011;3451;52.476;13.316;2022-11-30T10:56:25;59.40;;;33.77;;
6825;SDS011;3451;52.476;13.316;2022-11-30T10:58:53;64.10;;;33.90;;
6825;SDS011;3451;52.476;13.316;2022-11-30T11:01:55;61.87;;;33.17;;
6825;SDS011;3451;52.476;13.316;2022-11-30T11:04:15;57.97;;;33.70;;
6825;SDS011;3451;52.476;13.316;2022-11-30T11:06:43;62.83;;;34.13;;
6825;SDS011;3451;52.476;13.316;2022-11-30T11:09:28;55.70;;;32.37;;
6825;SDS011;3451;52.476;13.316;2022-11-30T11:11:57;58.63;;;33.30;;
6825;SDS011;3451;52.476;13.316;2022-11-30T11:14:24;60.80;;;34.00;;
6825;SDS011;3451;52.476;13.316;2022-11-30T11:16:58;60.37;;;33.80;;
6825;SDS011;3451;52.476;13.316;2022-11-30T11:19:35;66.03;;;34.97;;
6825;SDS011;3451;52.476;13.316;2022-11-30T11:22:12;60.47;;;33.93;;
6825;SDS011;3451;52.476;13.316;2022-11-30T11:24:40;58.87;;;32.63;;
6825;SDS011;3451;52.476;13.316;2022-11-30T11:27:09;60.57;;;32.53;;
6825;SDS011;3451;52.476;13.316;2022-11-30T11:29:43;65.10;;;34.53;;
6825;SDS011;3451;52.476;13.316;2022-11-30T11:34:39;64.43;;;34.70;;
6825;SDS011;3451;52.476;13.316;2022-11-30T11:39:58;66.23;;;34.73;;
6825;SDS011;3451;52.476;13.316;2022-11-30T11:42:25;64.63;;;35.77;;
6825;SDS011;3451;52.476;13.316;2022-11-30T11:44:54;66.27;;;35.13;;
6825;SDS011;3451;52.476;13.316;2022-11-30T11:47:22;67.13;;;35.40;;
6825;SDS011;3451;52.476;13.316;2022-11-30T11:49:49;67.40;;;36.90;;
6825;SDS011;3451;52.476;13.316;2022-11-30T11:52:16;64.70;;;35.27;;
6825;SDS011;3451;52.476;13.316;2022-11-30T11:54:49;66.73;;;34.93;;
6825;SDS011;3451;52.476;13.316;2022-11-30T11:57:18;70.27;;;36.07;;
6825;SDS011;3451;52.476;13.316;2022-11-30T11:59:50;68.30;;;37.07;;
6825;SDS011;3451;52.476;13.316;2022-11-30T12:04:49;69.37;;;37.03;;
6825;SDS011;3451;52.476;13.316;2022-11-30T12:07:31;67.00;;;35.17;;
6825;SDS011;3451;52.476;13.316;2022-11-30T12:10:08;64.97;;;35.17;;
6825;SDS011;3451;52.476;13.316;2022-11-30T12:12:57;76.30;;;37.67;;
6825;SDS011;3451;52.476;13.316;2022-11-30T12:15:25;70.30;;;36.60;;
6825;SDS011;3451;52.476;13.316;2022-11-30T12:17:55;67.10;;;36.87;;
6825;SDS011;3451;52.476;13.316;2022-11-30T12:20:27;69.00;;;36.57;;
6825;SDS011;3451;52.476;13.316;2022-11-30T12:25:45;68.47;;;37.70;;
6825;SDS011;3451;52.476;13.316;2022-11-30T12:28:19;75.13;;;39.57;;
6825;SDS011;3451;52.476;13.316;2022-11-30T12:33:27;72.27;;;38.87;;
6825;SDS011;3451;52.476;13.316;2022-11-30T12:38:32;78.80;;;39.97;;
6825;SDS011;3451;52.476;13.316;2022-11-30T12:46:11;78.90;;;40.37;;
6825;SDS011;3451;52.476;13.316;2022-11-30T12:48:52;72.93;;;38.97;;
6825;SDS011;3451;52.476;13.316;2022-11-30T12:51:26;69.53;;;38.60;;
6825;SDS011;3451;52.476;13.316;2022-11-30T12:59:14;80.17;;;41.13;;
6825;SDS011;3451;52.476;13.316;2022-11-30T13:01:53;84.83;;;42.10;;
6825;SDS011;3451;52.476;13.316;2022-11-30T13:04:43;88.57;;;43.27;;
6825;SDS011;3451;52.476;13.316;2022-11-30T13:07:25;93.33;;;43.33;;
6825;SDS011;3451;52.476;13.316;2022-11-30T13:09:55;85.57;;;42.77;;
6825;SDS011;3451;52.476;13.316;2022-11-30T13:12:23;87.90;;;43.77;;
6825;SDS011;3451;52.476;13.316;2022-11-30T13:14:54;84.37;;;43.23;;
6825;SDS011;3451;52.476;13.316;2022-11-30T13:17:23;87.03;;;43.77;;
6825;SDS011;3451;52.476;13.316;2022-11-30T13:19:53;86.60;;;43.43;;
6825;SDS011;3451;52.476;13.316;2022-11-30T13:22:24;95.03;;;44.90;;
6825;SDS011;3451;52.476;13.316;2022-11-30T13:24:54;88.50;;;44.17;;
6825;SDS011;3451;52.476;13.316;2022-11-30T13:27:35;84.97;;;43.77;;
6825;SDS011;3451;52.476;13.316;2022-11-30T13:32:37;92.00;;;44.70;;
6825;SDS011;3451;52.476;13.316;2022-11-30T13:40:58;91.40;;;43.77;;
6825;SDS011;3451;52.476;13.316;2022-11-30T13:43:27;87.07;;;42.47;;
6825;SDS011;3451;52.476;13.316;2022-11-30T13:46:04;91.17;;;43.53;;
6825;SDS011;3451;52.476;13.316;2022-11-30T13:48:32;87.47;;;43.47;;
6825;SDS011;3451;52.476;13.316;2022-11-30T13:50:58;81.30;;;40.60;;
6825;SDS011;3451;52.476;13.316;2022-11-30T13:53:26;82.93;;;41.87;;
6825;SDS011;3451;52.476;13.316;2022-11-30T13:55:57;86.40;;;43.60;;
6825;SDS011;3451;52.476;13.316;2022-11-30T13:58:23;90.50;;;42.67;;
6825;SDS011;3451;52.476;13.316;2022-11-30T14:00:59;88.13;;;43.37;;
6825;SDS011;3451;52.476;13.316;2022-11-30T14:03:27;85.93;;;42.40;;
6825;SDS011;3451;52.476;13.316;2022-11-30T14:05:55;94.47;;;44.07;;
6825;SDS011;3451;52.476;13.316;2022-11-30T14:10:49;92.80;;;45.07;;
6825;SDS011;3451;52.476;13.316;2022-11-30T14:20:46;95.47;;;43.70;;
6825;SDS011;3451;52.476;13.316;2022-11-30T14:23:39;95.80;;;43.47;;
6825;SDS011;3451;52.476;13.316;2022-11-30T14:26:15;92.17;;;43.00;;
6825;SDS011;3451;52.476;13.316;2022-11-30T14:31:28;95.40;;;42.97;;
6825;SDS011;3451;52.476;13.316;2022-11-30T14:36:32;99.23;;;43.57;;
6825;SDS011;3451;52.476;13.316;2022-11-30T14:39:00;95.53;;;41.90;;
6825;SDS011;3451;52.476;13.316;2022-11-30T14:41:27;94.33;;;42.03;;
6825;SDS011;3451;52.476;13.316;2022-11-30T14:43:58;104.73;;;44.30;;
6825;SDS011;3451;52.476;13.316;2022-11-30T14:46:24;103.43;;;43.40;;
6825;SDS011;3451;52.476;13.316;2022-11-30T14:52:03;107.97;;;44.67;;
6825;SDS011;3451;52.476;13.316;2022-11-30T14:54:34;109.57;;;44.83;;
6825;SDS011;3451;52.476;13.316;2022-11-30T14:57:07;104.17;;;44.57;;
6825;SDS011;3451;52.476;13.316;2022-11-30T14:59:47;100.50;;;41.80;;
6825;SDS011;3451;52.476;13.316;2022-11-30T15:02:21;106.87;;;43.70;;
6825;SDS011;3451;52.476;13.316;2022-11-30T15:04:49;106.60;;;42.57;;
6825;SDS011;3451;52.476;13.316;2022-11-30T15:07:16;113.90;;;44.27;;
6825;SDS011;3451;52.476;13.316;2022-11-30T15:09:43;105.33;;;42.73;;
6825;SDS011;3451;52.476;13.316;2022-11-30T15:12:15;123.83;;;45.43;;
6825;SDS011;3451;52.476;13.316;2022-11-30T15:14:59;113.53;;;43.40;;
6825;SDS011;3451;52.476;13.316;2022-11-30T15:17:26;115.53;;;43.57;;
6825;SDS011;3451;52.476;13.316;2022-11-30T15:19:52;109.93;;;43.30;;
6825;SDS011;3451;52.476;13.316;2022-11-30T15:22:21;133.13;;;45.67;;
6825;SDS011;3451;52.476;13.316;2022-11-30T15:24:48;118.20;;;45.53;;
6825;SDS011;3451;52.476;13.316;2022-11-30T15:27:17;126.03;;;47.37;;
6825;SDS011;3451;52.476;13.316;2022-11-30T15:29:52;127.67;;;47.37;;
6825;SDS011;3451;52.476;13.316;2022-11-30T15:32:22;123.87;;;46.63;;
6825;SDS011;3451;52.476;13.316;2022-11-30T15:34:50;119.07;;;46.97;;
6825;SDS011;3451;52.476;13.316;2022-11-30T15:37:43;118.07;;;44.70;;
6825;SDS011;3451;52.476;13.316;2022-11-30T15:40:08;131.63;;;45.53;;
6825;SDS011;3451;52.476;13.316;2022-11-30T15:42:36;127.33;;;46.23;;
6825;SDS011;3451;52.476;13.316;2022-11-30T15:45:11;116.40;;;42.70;;
6825;SDS011;3451;52.476;13.316;2022-11-30T15:47:39;118.83;;;46.20;;
6825;SDS011;3451;52.476;13.316;2022-11-30T15:50:30;116.53;;;44.10;;
6825;SDS011;3451;52.476;13.316;2022-11-30T15:52:58;120.50;;;43.57;;
6825;SDS011;3451;52.476;13.316;2022-11-30T15:55:44;118.30;;;43.97;;